createdAt,value
2022-11-14T00:00:57.800Z,10.93
2022-11-14T00:03:59.439Z,11.40
2022-11-14T00:07:00.913Z,11.65
2022-11-14T00:10:02.358Z,11.25
2022-11-14T00:13:04.767Z,11.90
2022-11-14T00:16:06.035Z,12.20
2022-11-14T00:19:07.204Z,11.52
2022-11-14T00:22:08.478Z,11.80
2022-11-14T00:25:10.699Z,12.10
2022-11-14T00:28:13.894Z,12.48
2022-11-14T00:31:15.294Z,11.90
2022-11-14T00:34:16.492Z,11.75
2022-11-14T00:37:17.719Z,11.90
2022-11-14T00:40:18.905Z,11.80
2022-11-14T00:43:21.601Z,10.85
2022-11-14T00:46:23.061Z,12.40
2022-11-14T00:49:24.195Z,11.55
2022-11-14T00:52:25.496Z,12.35
2022-11-14T00:55:26.516Z,13.02
2022-11-14T00:58:29.504Z,12.70
2022-11-14T01:01:30.874Z,12.50
2022-11-14T01:04:32.537Z,12.68
2022-11-14T01:07:33.927Z,11.73
2022-11-14T01:10:35.034Z,12.23
2022-11-14T01:13:37.530Z,11.70
2022-11-14T01:16:39.191Z,12.65
2022-11-14T01:19:40.233Z,12.30
2022-11-14T01:22:41.846Z,12.32
2022-11-14T01:25:43.587Z,12.32
2022-11-14T01:28:46.389Z,12.60
2022-11-14T01:31:47.609Z,12.25
2022-11-14T01:34:49.061Z,12.10
2022-11-14T01:37:50.529Z,12.27
2022-11-14T01:40:51.453Z,13.10
2022-11-14T01:43:53.861Z,12.38
2022-11-14T01:46:57.430Z,11.75
2022-11-14T01:49:59.393Z,12.50
2022-11-14T01:53:00.842Z,12.13
2022-11-14T01:56:04.206Z,12.27
2022-11-14T01:59:08.541Z,12.95
2022-11-14T02:02:13.951Z,12.38
2022-11-14T02:05:16.528Z,12.73
2022-11-14T02:08:19.184Z,12.02
2022-11-14T02:11:20.553Z,12.02
2022-11-14T02:14:23.081Z,12.00
2022-11-14T02:17:31.940Z,12.13
2022-11-14T02:20:37.299Z,12.82
2022-11-14T02:23:38.322Z,12.15
2022-11-14T02:26:39.891Z,12.57
2022-11-14T02:29:41.433Z,12.05
2022-11-14T02:33:10.561Z,12.88
2022-11-14T02:36:05.842Z,12.98
2022-11-14T02:39:06.881Z,12.55
2022-11-14T02:42:08.362Z,12.25
2022-11-14T02:45:10.553Z,13.10
2022-11-14T02:48:11.955Z,12.55
2022-11-14T02:51:14.932Z,12.52
2022-11-14T02:54:15.880Z,12.93
2022-11-14T02:57:17.192Z,12.90
2022-11-14T03:00:19.304Z,12.55
2022-11-14T03:03:20.341Z,12.02
2022-11-14T03:06:23.009Z,12.63
2022-11-14T03:09:24.173Z,12.45
2022-11-14T03:12:25.502Z,12.13
2022-11-14T03:15:26.941Z,12.40
2022-11-14T03:18:28.192Z,12.77
2022-11-14T03:21:31.272Z,11.85
2022-11-14T03:24:32.679Z,12.35
2022-11-14T03:27:33.941Z,12.60
2022-11-14T03:30:35.093Z,13.15
2022-11-14T03:33:36.590Z,12.50
2022-11-14T03:36:39.340Z,12.52
2022-11-14T03:39:40.476Z,13.15
2022-11-14T03:42:41.702Z,13.02
2022-11-14T03:45:42.806Z,13.18
2022-11-14T03:48:44.576Z,12.95
2022-11-14T03:51:47.247Z,13.18
2022-11-14T03:54:48.363Z,12.85
2022-11-14T03:57:49.791Z,12.73
2022-11-14T04:00:51.022Z,13.43
2022-11-14T04:03:52.315Z,12.75
2022-11-14T04:06:55.115Z,13.68
2022-11-14T04:09:56.697Z,13.02
2022-11-14T04:12:58.436Z,12.80
2022-11-14T04:15:59.707Z,13.07
2022-11-14T04:19:01.169Z,12.45
2022-11-14T04:22:04.088Z,12.85
2022-11-14T04:25:05.393Z,12.88
2022-11-14T04:28:06.455Z,13.30
2022-11-14T04:31:07.375Z,12.55
2022-11-14T04:34:08.457Z,13.07
2022-11-14T04:37:11.102Z,12.65
2022-11-14T04:40:12.655Z,13.80
2022-11-14T04:43:13.800Z,12.75
2022-11-14T04:46:14.872Z,12.48
2022-11-14T04:49:15.902Z,12.18
2022-11-14T04:52:18.674Z,12.23
2022-11-14T04:55:20.043Z,12.73
2022-11-14T04:58:21.096Z,13.00
2022-11-14T05:01:22.707Z,11.52
2022-11-14T05:04:24.085Z,12.63
2022-11-14T05:07:26.872Z,12.80
2022-11-14T05:10:28.351Z,12.65
2022-11-14T05:13:29.421Z,12.18
2022-11-14T05:16:30.735Z,12.77
2022-11-14T05:19:31.785Z,12.38
2022-11-14T05:22:34.450Z,12.57
2022-11-14T05:25:35.526Z,12.75
2022-11-14T05:28:36.687Z,12.82
2022-11-14T05:31:37.997Z,13.68
2022-11-14T05:34:39.527Z,12.85
2022-11-14T05:37:42.281Z,12.32
2022-11-14T05:40:43.615Z,12.57
2022-11-14T05:43:44.755Z,13.07
2022-11-14T05:46:46.489Z,11.70
2022-11-14T05:49:47.569Z,13.48
2022-11-14T05:52:50.308Z,13.07
2022-11-14T05:55:51.645Z,12.23
2022-11-14T05:58:52.662Z,12.95
2022-11-14T06:01:53.995Z,13.25
2022-11-14T06:04:55.618Z,13.48
2022-11-14T06:07:58.987Z,12.52
2022-11-14T06:11:02.831Z,12.75
2022-11-14T06:14:10.590Z,12.98
2022-11-14T06:17:12.379Z,13.07
2022-11-14T06:20:14.335Z,12.40
2022-11-14T06:23:20.600Z,12.75
2022-11-14T06:26:25.436Z,13.15
2022-11-14T06:29:30.123Z,12.57
2022-11-14T06:32:34.185Z,12.20
2022-11-14T06:35:35.483Z,12.90
2022-11-14T06:38:38.970Z,13.00
2022-11-14T06:41:40.393Z,13.05
2022-11-14T06:44:41.357Z,12.23
2022-11-14T06:47:42.766Z,13.50
2022-11-14T06:50:43.882Z,13.43
2022-11-14T06:53:46.534Z,13.73
2022-11-14T06:56:47.840Z,14.48
2022-11-14T06:59:49.426Z,13.60
2022-11-14T07:02:50.910Z,13.68
2022-11-14T07:05:52.789Z,13.07
2022-11-14T07:08:55.610Z,13.75
2022-11-14T07:11:56.859Z,14.90
2022-11-14T07:14:58.636Z,14.10
2022-11-14T07:18:00.070Z,14.55
2022-11-14T07:21:01.634Z,14.57
2022-11-14T07:24:04.315Z,14.38
2022-11-14T07:27:08.643Z,13.80
2022-11-14T07:30:10.267Z,15.23
2022-11-14T07:33:11.625Z,14.38
2022-11-14T07:36:13.412Z,14.43
2022-11-14T07:39:15.931Z,14.73
2022-11-14T07:42:17.041Z,15.25
2022-11-14T07:45:20.026Z,14.35
2022-11-14T07:48:22.485Z,14.48
2022-11-14T07:51:23.872Z,14.95
2022-11-14T07:54:26.962Z,15.43
2022-11-14T07:57:28.550Z,15.15
2022-11-14T08:00:30.284Z,15.25
2022-11-14T08:03:31.592Z,15.18
2022-11-14T08:06:32.833Z,15.05
2022-11-14T08:09:35.454Z,14.80
2022-11-14T08:12:38.587Z,13.95
2022-11-14T08:15:39.978Z,15.63
2022-11-14T08:18:41.333Z,14.55
2022-11-14T08:21:42.659Z,15.18
2022-11-14T08:24:45.177Z,14.27
2022-11-14T08:27:46.178Z,14.57
2022-11-14T08:30:47.595Z,14.57
2022-11-14T08:33:50.505Z,14.88
2022-11-14T08:36:51.613Z,14.75
2022-11-14T08:39:54.891Z,14.55
2022-11-14T08:42:59.455Z,14.73
2022-11-14T08:46:02.377Z,15.23
2022-11-14T08:49:04.176Z,15.00
2022-11-14T08:52:05.938Z,14.40
2022-11-14T08:55:09.011Z,14.13
2022-11-14T08:58:10.418Z,14.77
2022-11-14T09:01:11.941Z,14.40
2022-11-14T09:04:13.479Z,13.45
2022-11-14T09:07:14.643Z,14.45
2022-11-14T09:10:17.748Z,13.95
2022-11-14T09:13:18.993Z,13.48
2022-11-14T09:16:20.410Z,15.00
2022-11-14T09:19:21.807Z,14.27
2022-11-14T09:22:23.331Z,14.57
2022-11-14T09:25:26.526Z,14.55
2022-11-14T09:28:27.557Z,15.00
2022-11-14T09:31:29.903Z,13.77
2022-11-14T09:34:30.996Z,14.27
2022-11-14T09:37:32.857Z,14.18
2022-11-14T09:40:43.143Z,14.57
2022-11-14T09:43:50.458Z,14.82
2022-11-14T09:46:54.589Z,14.30
2022-11-14T09:49:57.372Z,14.02
2022-11-14T09:52:59.305Z,14.02
2022-11-14T09:56:02.518Z,14.90
2022-11-14T09:59:04.368Z,14.52
2022-11-14T10:02:14.161Z,14.65
2022-11-14T10:05:20.909Z,15.02
2022-11-14T10:08:36.169Z,13.52
2022-11-14T10:11:40.354Z,13.77
2022-11-14T10:14:54.865Z,14.18
2022-11-14T10:18:05.237Z,14.68
2022-11-14T10:21:14.708Z,13.43
2022-11-14T10:24:23.497Z,14.57
2022-11-14T10:27:28.541Z,14.48
2022-11-14T10:30:33.442Z,13.90
2022-11-14T10:33:39.634Z,14.40
2022-11-14T10:36:47.359Z,14.52
2022-11-14T10:39:51.325Z,14.00
2022-11-14T10:42:57.056Z,14.00
2022-11-14T10:46:00.084Z,14.55
2022-11-14T10:49:01.169Z,13.27
2022-11-14T10:52:04.063Z,13.45
2022-11-14T10:55:08.238Z,13.45
2022-11-14T10:58:12.137Z,13.43
2022-11-14T11:01:31.651Z,12.98
2022-11-14T11:04:34.081Z,13.25
2022-11-14T11:08:15.051Z,13.80
2022-11-14T11:11:32.541Z,13.80
2022-11-14T11:14:35.803Z,13.77
2022-11-14T11:17:42.845Z,13.50
2022-11-14T11:20:44.650Z,13.55
2022-11-14T11:23:50.032Z,13.70
2022-11-14T11:27:11.105Z,13.02
2022-11-14T11:30:24.148Z,14.05
2022-11-14T11:33:26.936Z,12.95
2022-11-14T11:36:29.747Z,13.00
2022-11-14T11:39:32.492Z,11.93
2022-11-14T11:43:23.607Z,13.48
2022-11-14T11:45:58.791Z,13.27
2022-11-14T11:49:04.019Z,12.77
2022-11-14T11:52:06.809Z,13.48
2022-11-14T11:55:15.703Z,12.73
2022-11-14T11:58:20.812Z,13.43
2022-11-14T12:01:23.789Z,13.38
2022-11-14T12:04:26.306Z,13.27
2022-11-14T12:07:34.475Z,13.15
2022-11-14T12:10:37.767Z,12.32
2022-11-14T12:13:47.454Z,12.85
2022-11-14T12:17:01.602Z,12.93
2022-11-14T12:20:20.973Z,13.52
2022-11-14T12:23:37.059Z,13.05
2022-11-14T12:26:45.811Z,13.10
2022-11-14T12:29:52.872Z,12.20
2022-11-14T12:32:57.446Z,12.73
2022-11-14T12:35:59.670Z,12.68
2022-11-14T12:39:02.154Z,12.07
2022-11-14T12:42:04.674Z,12.68
2022-11-14T12:45:27.086Z,11.93
2022-11-14T12:48:34.072Z,12.70
2022-11-14T12:51:52.608Z,12.65
2022-11-14T12:54:53.954Z,12.93
2022-11-14T12:58:00.785Z,12.50
2022-11-14T13:01:09.814Z,13.35
2022-11-14T13:04:19.214Z,12.95
2022-11-14T13:07:31.345Z,12.70
2022-11-14T13:10:38.622Z,12.45
2022-11-14T13:14:13.122Z,12.95
2022-11-14T13:17:42.223Z,13.38
2022-11-14T13:21:02.311Z,11.88
2022-11-14T13:24:04.185Z,13.18
2022-11-14T13:27:20.125Z,12.15
2022-11-14T13:30:41.510Z,12.52
2022-11-14T13:33:43.263Z,12.20
2022-11-14T13:36:48.213Z,12.73
2022-11-14T13:39:55.885Z,12.10
2022-11-14T13:43:00.757Z,13.45
2022-11-14T13:46:06.065Z,12.25
2022-11-14T13:49:12.848Z,12.55
2022-11-14T13:52:16.295Z,12.23
2022-11-14T13:55:24.406Z,12.27
2022-11-14T13:58:32.966Z,12.43
2022-11-14T14:01:41.007Z,12.77
2022-11-14T14:04:49.483Z,12.82
2022-11-14T14:07:58.988Z,11.85
2022-11-14T14:11:09.413Z,12.00
2022-11-14T14:14:17.514Z,12.25
2022-11-14T14:17:21.732Z,11.85
2022-11-14T14:20:28.936Z,11.95
2022-11-14T14:23:37.670Z,11.73
2022-11-14T14:26:44.292Z,12.00
2022-11-14T14:29:47.816Z,12.57
2022-11-14T14:33:03.557Z,12.15
2022-11-14T14:36:05.512Z,12.27
2022-11-14T14:39:18.305Z,11.70
2022-11-14T14:42:19.768Z,12.10
2022-11-14T14:45:21.493Z,11.90
2022-11-14T14:48:24.600Z,11.98
2022-11-14T14:51:33.331Z,11.35
2022-11-14T14:54:35.786Z,12.68
2022-11-14T14:57:36.862Z,12.27
2022-11-14T15:00:38.219Z,12.90
2022-11-14T15:03:40.821Z,12.48
2022-11-14T15:06:45.572Z,12.52
2022-11-14T15:09:53.964Z,12.65
2022-11-14T15:12:55.836Z,12.13
2022-11-14T15:15:57.479Z,11.82
2022-11-14T15:18:59.191Z,11.77
2022-11-14T15:22:04.534Z,12.52
2022-11-14T15:25:16.335Z,13.23
2022-11-14T15:28:18.711Z,12.05
2022-11-14T15:31:21.513Z,12.20
2022-11-14T15:34:25.405Z,12.77
2022-11-14T15:37:28.101Z,13.57
2022-11-14T15:40:34.308Z,12.30
2022-11-14T15:43:49.362Z,12.23
2022-11-14T15:46:50.679Z,12.70
2022-11-14T15:49:55.232Z,12.90
2022-11-14T15:52:59.041Z,12.00
2022-11-14T15:56:01.516Z,14.48
2022-11-14T15:59:04.181Z,13.20
2022-11-14T16:02:11.363Z,12.80
2022-11-14T16:05:14.170Z,12.43
2022-11-14T16:08:15.506Z,13.57
2022-11-14T16:11:18.429Z,12.68
2022-11-14T16:14:19.771Z,13.32
2022-11-14T16:17:20.853Z,13.02
2022-11-14T16:20:23.309Z,13.50
2022-11-14T16:23:24.519Z,13.13
2022-11-14T16:26:27.266Z,13.07
2022-11-14T16:29:28.859Z,13.60
2022-11-14T16:32:30.234Z,14.02
2022-11-14T16:35:31.313Z,13.25
2022-11-14T16:38:32.913Z,12.50
2022-11-14T16:41:35.527Z,12.50
2022-11-14T16:44:41.154Z,13.10
2022-11-14T16:47:44.551Z,12.82
2022-11-14T16:50:46.003Z,13.38
2022-11-14T16:53:47.147Z,12.82
2022-11-14T16:56:50.114Z,12.13
2022-11-14T16:59:51.916Z,12.27
2022-11-14T17:02:52.970Z,12.43
2022-11-14T17:05:54.202Z,12.60
2022-11-14T17:08:56.004Z,12.35
2022-11-14T17:11:58.581Z,12.43
2022-11-14T17:15:00.482Z,12.73
2022-11-14T17:18:01.687Z,11.98
2022-11-14T17:21:05.690Z,12.85
2022-11-14T17:24:07.444Z,12.95
2022-11-14T17:27:10.080Z,12.82
2022-11-14T17:30:12.647Z,12.43
2022-11-14T17:33:15.400Z,12.38
2022-11-14T17:36:17.190Z,12.35
2022-11-14T17:39:18.619Z,12.93
2022-11-14T17:42:21.425Z,12.50
2022-11-14T17:45:23.063Z,12.80
2022-11-14T17:48:24.372Z,12.35
2022-11-14T17:51:26.581Z,11.63
2022-11-14T17:54:27.858Z,11.13
2022-11-14T17:57:31.142Z,12.43
2022-11-14T18:00:32.392Z,12.30
2022-11-14T18:03:34.052Z,12.93
2022-11-14T18:06:35.397Z,11.90
2022-11-14T18:09:36.650Z,12.65
2022-11-14T18:12:39.351Z,11.80
2022-11-14T18:15:40.729Z,12.80
2022-11-14T18:18:42.444Z,12.60
2022-11-14T18:21:47.941Z,12.05
2022-11-14T18:24:53.744Z,12.55
2022-11-14T18:27:56.242Z,12.38
2022-11-14T18:30:57.986Z,12.25
2022-11-14T18:33:59.566Z,12.05
2022-11-14T18:37:00.766Z,12.02
2022-11-14T18:40:01.753Z,12.15
2022-11-14T18:43:04.629Z,12.05
2022-11-14T18:46:06.966Z,11.82
2022-11-14T18:49:08.782Z,11.75
2022-11-14T18:52:15.763Z,12.02
2022-11-14T18:55:18.494Z,11.75
2022-11-14T18:58:21.017Z,11.75
2022-11-14T19:01:24.880Z,12.18
2022-11-14T19:04:25.922Z,12.05
2022-11-14T19:07:29.458Z,12.88
2022-11-14T19:10:31.194Z,11.82
2022-11-14T19:13:33.946Z,11.82
2022-11-14T19:16:36.094Z,12.35
2022-11-14T19:19:37.135Z,10.85
2022-11-14T19:22:38.752Z,11.43
2022-11-14T19:25:40.568Z,11.45
2022-11-14T19:28:43.523Z,12.35
2022-11-14T19:31:45.117Z,11.30
2022-11-14T19:34:46.801Z,12.10
2022-11-14T19:37:48.087Z,11.82
2022-11-14T19:40:51.171Z,10.82
2022-11-14T19:43:54.231Z,11.82
2022-11-14T19:46:55.784Z,12.20
2022-11-14T19:49:57.018Z,11.93
2022-11-14T19:52:58.353Z,12.02
2022-11-14T19:56:00.906Z,11.85
2022-11-14T19:59:09.668Z,11.68
2022-11-14T20:02:13.761Z,11.82
2022-11-14T20:05:14.860Z,11.93
2022-11-14T20:08:16.452Z,11.18
2022-11-14T20:11:18.213Z,11.45
2022-11-14T20:14:20.990Z,11.52
2022-11-14T20:17:21.998Z,11.55
2022-11-14T20:20:23.454Z,11.25
2022-11-14T20:23:24.902Z,12.15
2022-11-14T20:26:26.271Z,11.60
2022-11-14T20:29:30.616Z,11.57
2022-11-14T20:32:32.134Z,11.55
2022-11-14T20:35:35.026Z,11.18
2022-11-14T20:38:36.175Z,11.68
2022-11-14T20:41:37.110Z,11.15
2022-11-14T20:44:40.025Z,11.27
2022-11-14T20:47:41.657Z,11.15
2022-11-14T20:50:43.034Z,12.45
2022-11-14T20:53:44.633Z,11.80
2022-11-14T20:56:46.000Z,11.27
2022-11-14T20:59:48.915Z,12.00
2022-11-14T21:02:50.199Z,12.13
2022-11-14T21:05:51.677Z,12.30
2022-11-14T21:08:53.001Z,12.27
2022-11-14T21:11:54.881Z,12.20
2022-11-14T21:14:57.281Z,12.65
2022-11-14T21:17:58.423Z,11.95
2022-11-14T21:21:00.240Z,11.85
2022-11-14T21:24:01.390Z,11.93
2022-11-14T21:27:03.856Z,11.82
2022-11-14T21:30:07.461Z,11.45
2022-11-14T21:33:08.942Z,11.73
2022-11-14T21:36:37.944Z,11.60
2022-11-14T21:39:32.362Z,12.23
2022-11-14T21:42:33.602Z,11.38
2022-11-14T21:45:36.066Z,11.27
2022-11-14T21:48:41.361Z,12.43
2022-11-14T21:51:43.063Z,11.40
2022-11-14T21:54:44.257Z,11.73
2022-11-14T21:57:45.908Z,11.50
2022-11-14T22:00:48.463Z,12.13
2022-11-14T22:04:07.123Z,12.07
2022-11-14T22:07:08.935Z,11.10
2022-11-14T22:10:10.614Z,11.93
2022-11-14T22:13:12.194Z,11.85
2022-11-14T22:16:17.361Z,11.52
2022-11-14T22:19:18.882Z,11.57
2022-11-14T22:22:20.059Z,12.73
2022-11-14T22:25:21.216Z,11.35
2022-11-14T22:28:22.664Z,11.38
2022-11-14T22:31:25.553Z,11.38
2022-11-14T22:34:26.983Z,11.38
2022-11-14T22:37:28.447Z,11.68
2022-11-14T22:40:30.809Z,11.05
2022-11-14T22:43:33.402Z,11.93
2022-11-14T22:46:36.202Z,11.02
2022-11-14T22:49:37.312Z,10.95
2022-11-14T22:52:38.531Z,11.70
2022-11-14T22:55:47.087Z,11.82
2022-11-14T22:58:48.592Z,10.80
2022-11-14T23:01:51.151Z,11.32
2022-11-14T23:04:52.196Z,10.63
2022-11-14T23:07:53.857Z,11.10
2022-11-14T23:10:55.001Z,10.90
2022-11-14T23:13:56.754Z,11.48
2022-11-14T23:17:00.044Z,11.02
2022-11-14T23:20:01.792Z,11.15
2022-11-14T23:23:03.355Z,10.43
2022-11-14T23:26:05.237Z,10.85
2022-11-14T23:29:06.803Z,11.00
2022-11-14T23:32:09.791Z,10.80
2022-11-14T23:35:11.125Z,10.98
2022-11-14T23:38:13.709Z,11.15
2022-11-14T23:41:17.027Z,11.48
2022-11-14T23:44:18.004Z,11.02
2022-11-14T23:47:20.834Z,11.20
2022-11-14T23:50:22.141Z,11.18
2022-11-14T23:53:23.555Z,11.57
2022-11-14T23:56:24.492Z,10.60
2022-11-14T23:59:25.740Z,11.90
